Time;durP1;ratioP1;P1;durP2;ratioP2;P2;SDS_P1;SDS_P2;PMS_P1;PMS_P2;Temp;Humidity;BMP_temperature;BMP_pressure;BME280_temperature;BME280_humidity;BME280_pressure;Samples;Min_cycle;Max_cycle;Signal;HPM_P1;HPM_P2
2022/07/20 00:01:19;;;;;;;3.53;2.28;;;;;;;23.23;58.10;101341.75;5034310;28;20096;-68
2022/07/20 00:03:45;;;;;;;2.88;1.60;;;;;;;23.20;58.65;101344.88;5034356;28;20025;-70
2022/07/20 00:06:12;;;;;;;10.98;2.05;;;;;;;23.04;58.52;101318.50;5034321;28;20482;-68
2022/07/20 00:11:21;;;;;;;3.90;1.67;;;;;;;23.14;58.13;101332.31;5034291;28;20044;-68
2022/07/20 00:13:53;;;;;;;3.15;1.73;;;;;;;23.10;58.32;101329.22;5036054;28;20040;-68
2022/07/20 00:16:19;;;;;;;2.70;1.70;;;;;;;23.05;57.71;101320.19;5036479;28;20030;-67
2022/07/20 00:18:45;;;;;;;2.65;1.42;;;;;;;22.96;57.62;101315.03;5036547;28;20304;-68
2022/07/20 00:21:10;;;;;;;5.47;2.03;;;;;;;23.09;57.38;101337.53;5040648;28;20116;-68
2022/07/20 00:23:36;;;;;;;3.58;1.75;;;;;;;23.12;56.98;101337.91;5037381;28;20409;-68
2022/07/20 00:26:01;;;;;;;3.60;1.80;;;;;;;23.12;56.80;101337.91;5036728;28;20112;-68
2022/07/20 00:28:27;;;;;;;2.47;1.50;;;;;;;23.03;56.95;101317.69;5035066;28;20450;-68
2022/07/20 00:30:52;;;;;;;2.50;1.38;;;;;;;23.06;56.59;101321.81;5020528;28;20021;-68
2022/07/20 00:33:17;;;;;;;3.75;2.45;;;;;;;23.09;56.49;101326.78;5035497;28;20021;-67
2022/07/20 00:35:43;;;;;;;2.03;1.55;;;;;;;23.06;56.71;101333.44;5035451;28;20052;-67
2022/07/20 00:38:08;;;;;;;2.95;1.88;;;;;;;23.04;56.95;101324.75;5035869;28;20037;-69
2022/07/20 00:40:33;;;;;;;2.65;1.70;;;;;;;23.04;56.26;101323.91;5035504;28;20033;-67
2022/07/20 00:42:59;;;;;;;2.25;1.65;;;;;;;22.95;55.96;101301.78;5036653;28;20112;-67
2022/07/20 00:45:24;;;;;;;4.70;1.67;;;;;;;23.05;56.45;101312.91;5037849;28;20397;-67
2022/07/20 00:47:51;;;;;;;2.78;1.50;;;;;;;22.99;56.21;101320.00;5040281;28;20500;-67
2022/07/20 00:50:17;;;;;;;2.95;1.92;;;;;;;22.87;56.95;101302.91;5038179;28;20387;-67
2022/07/20 00:52:43;;;;;;;2.42;1.10;;;;;;;22.88;56.82;101314.50;5040581;28;20043;-68
2022/07/20 00:55:09;;;;;;;4.05;1.98;;;;;;;22.54;57.25;101255.59;5038040;28;20029;-67
2022/07/20 00:57:35;;;;;;;3.40;2.25;;;;;;;22.80;56.79;101302.16;5038740;28;20036;-68
2022/07/20 01:00:01;;;;;;;2.13;1.35;;;;;;;22.69;57.04;101281.31;5039941;28;20056;-69
2022/07/20 01:02:26;;;;;;;3.05;1.40;;;;;;;22.74;57.40;101303.03;5041088;28;20068;-68
2022/07/20 01:04:52;;;;;;;2.05;1.33;;;;;;;22.74;57.29;101311.09;5037974;28;20111;-69
2022/07/20 01:07:18;;;;;;;5.53;1.73;;;;;;;22.73;56.97;101306.75;5038357;28;20025;-69
2022/07/20 01:09:44;;;;;;;2.40;1.92;;;;;;;22.72;56.71;101307.81;5035942;28;20337;-68
2022/07/20 01:12:10;;;;;;;3.38;1.35;;;;;;;22.67;57.52;101313.00;5040412;28;20512;-69
2022/07/20 01:14:37;;;;;;;2.95;1.63;;;;;;;22.59;57.21;101301.47;5040904;28;20037;-68
2022/07/20 01:17:02;;;;;;;2.00;1.40;;;;;;;22.61;57.60;101305.84;5038240;28;20112;-68
2022/07/20 01:19:28;;;;;;;2.17;1.73;;;;;;;22.59;57.42;101312.25;5041422;28;20223;-68
2022/07/20 01:21:53;;;;;;;2.67;1.30;;;;;;;22.55;57.12;101310.22;5037442;28;20032;-68
2022/07/20 01:24:18;;;;;;;2.42;1.52;;;;;;;22.51;57.72;101299.03;5038551;28;20041;-68
2022/07/20 01:26:45;;;;;;;5.55;1.63;;;;;;;22.41;57.51;101306.78;5042865;28;20029;-70
2022/07/20 01:29:12;;;;;;;3.60;1.85;;;;;;;22.42;57.98;101308.44;5040171;28;20025;-68
2022/07/20 01:31:37;;;;;;;2.00;1.33;;;;;;;22.36;58.04;101307.44;5038562;28;20037;-69
2022/07/20 01:34:03;;;;;;;1.67;1.40;;;;;;;22.34;58.19;101309.53;5041740;28;20504;-68
2022/07/20 01:36:29;;;;;;;4.80;1.88;;;;;;;22.24;58.24;101292.22;5038881;28;20440;-68
2022/07/20 01:38:54;;;;;;;6.20;1.60;;;;;;;22.32;57.48;101300.00;5032953;28;20028;-68
2022/07/20 01:41:19;;;;;;;2.22;1.48;;;;;;;22.31;58.18;101299.19;5040663;28;20122;-68
2022/07/20 01:43:45;;;;;;;4.20;1.88;;;;;;;22.20;58.04;101286.41;5036309;28;20033;-68
2022/07/20 01:46:10;;;;;;;2.63;1.50;;;;;;;22.27;58.29;101297.16;5040786;28;20584;-68
2022/07/20 01:48:36;;;;;;;2.10;1.30;;;;;;;22.25;58.17;101299.25;5021685;28;20037;-70
2022/07/20 01:51:02;;;;;;;2.17;1.70;;;;;;;22.21;58.04;101297.97;5037873;28;20029;-68
2022/07/20 01:53:27;;;;;;;3.33;2.00;;;;;;;21.97;58.31;101262.75;5038549;28;20385;-69
2022/07/20 01:55:53;;;;;;;2.58;1.77;;;;;;;22.14;58.45;101293.47;5034958;28;20120;-69
2022/07/20 01:58:19;;;;;;;1.90;1.27;;;;;;;22.10;58.24;101297.66;5034820;28;20158;-69
2022/07/20 02:00:45;;;;;;;2.70;1.42;;;;;;;22.04;58.59;101293.13;5039664;28;20065;-69
2022/07/20 02:03:10;;;;;;;6.38;1.70;;;;;;;21.96;58.84;101280.75;5037978;28;20032;-69
2022/07/20 02:05:35;;;;;;;2.80;1.52;;;;;;;22.01;58.76;101293.53;5043029;28;20113;-69
2022/07/20 02:08:01;;;;;;;2.55;1.23;;;;;;;21.95;58.83;101286.38;5038395;28;20029;-69
2022/07/20 02:10:27;;;;;;;3.75;1.40;;;;;;;21.89;59.35;101282.66;5037798;28;20033;-69
2022/07/20 02:12:52;;;;;;;2.38;1.25;;;;;;;21.81;59.01;101285.59;5037597;28;20494;-69
2022/07/20 02:18:10;;;;;;;2.28;1.42;;;;;;;21.74;59.87;101282.13;5038097;28;20056;-69
2022/07/20 02:20:36;;;;;;;3.08;1.67;;;;;;;21.71;59.14;101280.69;5035248;28;20033;-69
2022/07/20 02:23:03;;;;;;;2.10;1.60;;;;;;;21.68;59.39;101281.09;5036701;28;20382;-69
2022/07/20 02:25:29;;;;;;;2.22;1.83;;;;;;;21.63;59.37;101274.72;5033716;28;20033;-69
2022/07/20 02:27:54;;;;;;;2.30;1.83;;;;;;;21.63;59.40;101283.59;5035441;28;20478;-69
2022/07/20 02:30:20;;;;;;;3.55;1.60;;;;;;;21.59;59.63;101270.81;5039024;28;20414;-69
2022/07/20 02:32:46;;;;;;;3.80;1.67;;;;;;;21.55;59.52;101268.53;5033177;28;20041;-69
2022/07/20 02:35:11;;;;;;;2.55;1.55;;;;;;;21.54;59.38;101271.47;5041284;28;20036;-69
2022/07/20 02:37:36;;;;;;;6.07;2.05;;;;;;;21.48;59.65;101266.94;5040688;28;20029;-69
2022/07/20 02:40:04;;;;;;;2.95;2.15;;;;;;;21.43;60.24;101270.25;5037120;28;20028;-69
2022/07/20 02:42:29;;;;;;;3.38;1.95;;;;;;;21.40;60.34;101267.94;5038485;28;20036;-69
2022/07/20 02:44:54;;;;;;;3.47;1.92;;;;;;;21.31;60.19;101272.72;5038225;28;20024;-69
2022/07/20 02:47:20;;;;;;;3.28;2.55;;;;;;;21.24;61.17;101261.19;5037431;28;20038;-69
2022/07/20 02:49:45;;;;;;;1.80;1.20;;;;;;;21.18;60.80;101270.06;5036314;28;20091;-69
2022/07/20 02:52:11;;;;;;;2.42;1.67;;;;;;;21.14;61.16;101260.78;5033550;28;20022;-69
2022/07/20 02:54:36;;;;;;;5.00;2.55;;;;;;;21.10;60.34;101271.13;5037667;28;20047;-69
2022/07/20 02:57:01;;;;;;;1.85;1.20;;;;;;;21.18;60.88;101270.06;5034745;28;20025;-69
2022/07/20 02:59:27;;;;;;;1.83;1.50;;;;;;;21.13;60.61;101259.16;5036846;28;20025;-69
2022/07/20 03:01:52;;;;;;;2.80;1.50;;;;;;;21.08;61.20;101267.84;5032318;28;20067;-69
2022/07/20 03:04:18;;;;;;;2.95;1.55;;;;;;;21.01;61.80;101272.38;5034253;28;20164;-69
2022/07/20 03:06:44;;;;;;;1.83;1.30;;;;;;;20.93;61.35;101262.69;5037401;28;20160;-69
2022/07/20 03:09:09;;;;;;;4.95;2.15;;;;;;;20.98;61.35;101264.75;5014958;28;20460;-69
2022/07/20 03:11:35;;;;;;;3.22;2.17;;;;;;;20.93;61.54;101260.00;5037913;28;20049;-69
2022/07/20 03:14:00;;;;;;;2.40;1.55;;;;;;;20.90;61.79;101260.41;5033545;28;20402;-69
2022/07/20 03:16:25;;;;;;;1.70;1.23;;;;;;;20.84;61.91;101253.22;5040455;28;20028;-69
2022/07/20 03:18:51;;;;;;;3.03;1.48;;;;;;;20.79;62.33;101252.19;5037178;28;20507;-69
2022/07/20 03:21:16;;;;;;;7.18;2.00;;;;;;;20.77;61.53;101248.88;5032740;28;20463;-69
2022/07/20 03:23:41;;;;;;;2.05;1.42;;;;;;;20.72;61.71;101241.47;5031806;28;20045;-69
2022/07/20 03:26:07;;;;;;;5.32;1.73;;;;;;;20.77;61.54;101244.31;5038973;28;20108;-69
2022/07/20 03:28:32;;;;;;;2.08;1.58;;;;;;;20.73;61.70;101248.47;5040624;28;20056;-69
2022/07/20 03:30:58;;;;;;;5.40;1.83;;;;;;;20.73;61.48;101251.13;5040482;28;20055;-69
2022/07/20 03:33:23;;;;;;;1.95;1.27;;;;;;;20.68;61.82;101253.63;5035130;28;20036;-69
2022/07/20 03:35:48;;;;;;;2.53;1.80;;;;;;;20.73;61.54;101256.50;5034694;28;20499;-69
2022/07/20 03:38:14;;;;;;;4.50;1.73;;;;;;;20.66;61.73;101240.41;5044331;28;20032;-69
2022/07/20 03:40:39;;;;;;;3.05;1.25;;;;;;;20.76;61.76;101264.16;5037951;28;20061;-69
2022/07/20 03:43:04;;;;;;;4.20;2.05;;;;;;;20.65;61.94;101265.59;5039668;28;20057;-69
2022/07/20 03:45:30;;;;;;;4.43;1.92;;;;;;;20.60;62.54;101264.56;5036186;28;20025;-69
2022/07/20 03:47:55;;;;;;;5.32;2.90;;;;;;;20.51;62.20;101267.44;5040481;28;20112;-69
2022/07/20 03:50:21;;;;;;;2.03;1.40;;;;;;;20.44;63.34;101263.09;5031891;28;20500;-69
2022/07/20 03:52:46;;;;;;;2.00;1.80;;;;;;;20.34;63.29;101272.34;5032738;28;20025;-69
2022/07/20 03:55:12;;;;;;;4.75;1.98;;;;;;;20.33;64.07;101270.69;5035870;28;20033;-69
2022/07/20 03:57:37;;;;;;;3.95;1.38;;;;;;;20.19;63.80;101250.28;5032725;28;20029;-69
2022/07/20 04:00:04;;;;;;;3.90;2.17;;;;;;;20.24;63.92;101263.06;5038487;28;20163;-69
2022/07/20 04:02:30;;;;;;;5.55;1.95;;;;;;;20.25;63.75;101264.69;5029803;28;20057;-69
2022/07/20 04:04:55;;;;;;;9.57;2.35;;;;;;;20.22;64.41;101267.81;5038728;28;20521;-69
2022/07/20 04:07:20;;;;;;;4.10;2.25;;;;;;;20.14;64.16;101277.69;5038591;28;20041;-69
2022/07/20 04:09:49;;;;;;;3.72;1.52;;;;;;;20.15;65.07;101273.16;5044322;28;20040;-69
2022/07/20 04:12:24;;;;;;;4.13;2.35;;;;;;;20.17;64.67;101273.78;5038843;28;20390;-69
2022/07/20 04:14:52;;;;;;;1.65;1.50;;;;;;;20.18;64.59;101272.72;5041151;28;20036;-69
2022/07/20 04:17:18;;;;;;;1.75;1.35;;;;;;;20.21;64.37;101271.50;5041694;28;20024;-69
2022/07/20 04:19:44;;;;;;;2.22;1.73;;;;;;;20.21;64.86;101260.78;5039816;28;20489;-69
2022/07/20 04:22:09;;;;;;;2.20;1.38;;;;;;;20.17;65.52;101264.91;5043058;28;20029;-69
2022/07/20 04:24:35;;;;;;;2.45;1.77;;;;;;;20.11;65.50;101267.34;5040149;28;20025;-69
2022/07/20 04:27:01;;;;;;;4.95;2.55;;;;;;;20.12;65.80;101265.50;5044159;28;20116;-69
2022/07/20 04:29:27;;;;;;;3.17;2.08;;;;;;;20.14;65.06;101266.97;5040421;28;20481;-68
2022/07/20 04:31:53;;;;;;;3.38;1.63;;;;;;;20.19;65.52;101268.22;5036104;28;20071;-68
2022/07/20 04:34:18;;;;;;;3.88;1.70;;;;;;;20.20;65.49;101262.63;5042240;28;20044;-68
2022/07/20 04:36:43;;;;;;;4.53;1.90;;;;;;;20.16;65.35;101247.16;5043242;28;20032;-68
2022/07/20 04:39:09;;;;;;;3.05;1.73;;;;;;;20.30;65.25;101272.97;5041266;28;20513;-68
2022/07/20 04:41:34;;;;;;;4.63;2.45;;;;;;;20.32;65.62;101278.97;5032018;28;20040;-68
2022/07/20 04:43:59;;;;;;;8.02;1.95;;;;;;;20.35;65.65;101279.34;5041255;28;20379;-68
2022/07/20 04:46:25;;;;;;;5.97;2.45;;;;;;;20.39;65.89;101278.97;5028895;28;20129;-68
2022/07/20 04:48:50;;;;;;;2.28;1.70;;;;;;;20.39;65.06;101265.56;5033045;28;20477;-69
2022/07/20 04:51:16;;;;;;;2.85;2.00;;;;;;;20.51;64.86;101275.47;5038944;28;20115;-69
2022/07/20 04:53:41;;;;;;;2.88;1.77;;;;;;;20.60;64.98;101280.66;5040950;28;20108;-69
2022/07/20 04:56:07;;;;;;;3.58;1.52;;;;;;;20.67;65.07;101276.13;5030094;28;20057;-68
2022/07/20 04:58:32;;;;;;;4.60;1.90;;;;;;;20.81;65.03;101280.44;5040050;28;20629;-68
2022/07/20 05:00:58;;;;;;;3.67;1.42;;;;;;;21.01;64.53;101283.09;5036127;28;20054;-68
2022/07/20 05:03:24;;;;;;;2.97;1.40;;;;;;;21.19;64.48;101277.09;5036513;28;20402;-68
2022/07/20 05:05:49;;;;;;;2.05;1.30;;;;;;;21.45;64.05;101294.19;5017369;28;20202;-68
2022/07/20 05:08:15;;;;;;;2.85;1.55;;;;;;;21.59;62.54;101295.00;5042474;28;20032;-68
2022/07/20 05:10:40;;;;;;;2.78;1.80;;;;;;;21.69;62.33;101306.94;5016827;28;20029;-68
2022/07/20 05:13:06;;;;;;;2.88;1.45;;;;;;;21.76;62.21;101307.72;5033209;28;20436;-68
2022/07/20 05:15:31;;;;;;;3.33;1.95;;;;;;;21.81;62.07;101308.94;5033738;28;20021;-69
2022/07/20 05:17:56;;;;;;;1.77;1.42;;;;;;;21.84;62.23;101300.44;5039502;28;20025;-69
2022/07/20 05:20:22;;;;;;;2.10;1.73;;;;;;;21.88;62.11;101305.19;5028941;28;20088;-68
2022/07/20 05:22:47;;;;;;;5.00;3.03;;;;;;;21.96;62.42;101301.44;5035445;28;20384;-69
2022/07/20 05:25:13;;;;;;;2.30;1.30;;;;;;;22.08;62.28;101293.50;5030390;28;20026;-69
2022/07/20 05:27:38;;;;;;;3.88;1.83;;;;;;;22.23;62.00;101290.56;5037444;28;20477;-68
2022/07/20 05:30:04;;;;;;;1.98;1.77;;;;;;;22.36;61.94;101298.53;5034373;28;21343;-68
2022/07/20 05:32:30;;;;;;;2.05;1.17;;;;;;;22.48;61.53;101310.25;5034525;28;20579;-69
2022/07/20 05:34:55;;;;;;;3.60;1.80;;;;;;;22.64;61.89;101310.75;5032771;28;20040;-69
2022/07/20 05:37:21;;;;;;;3.72;2.70;;;;;;;22.77;61.12;101307.97;5039092;28;20514;-69
2022/07/20 05:39:46;;;;;;;2.05;1.70;;;;;;;22.81;60.65;101282.25;5034858;28;20098;-69
2022/07/20 05:42:12;;;;;;;3.10;1.60;;;;;;;23.08;60.78;101308.97;5034714;28;20017;-69
2022/07/20 05:44:38;;;;;;;2.25;1.58;;;;;;;23.15;60.91;101317.81;5035737;28;20056;-69
2022/07/20 05:47:06;;;;;;;8.43;1.77;;;;;;;23.16;61.18;101333.72;5035830;28;20037;-69
2022/07/20 05:49:32;;;;;;;1.88;1.42;;;;;;;23.19;61.35;101329.75;5041166;28;20120;-69
2022/07/20 05:51:58;;;;;;;1.75;1.20;;;;;;;23.26;60.66;101332.41;5035269;28;20028;-69
2022/07/20 05:54:23;;;;;;;2.15;1.65;;;;;;;23.33;60.38;101331.28;5035971;28;20036;-69
2022/07/20 05:56:48;;;;;;;2.97;1.58;;;;;;;23.33;60.35;101317.00;5034446;28;20025;-69
2022/07/20 05:59:14;;;;;;;5.57;2.10;;;;;;;23.48;59.82;101327.41;5039382;28;20025;-69
2022/07/20 06:01:43;;;;;;;3.75;2.28;;;;;;;23.59;59.79;101327.47;5035291;28;20052;-69
2022/07/20 06:04:09;;;;;;;2.15;1.80;;;;;;;23.61;59.73;101336.16;5032041;28;20029;-69
2022/07/20 06:06:35;;;;;;;3.90;1.90;;;;;;;23.60;58.99;101344.47;5031911;28;20041;-69
2022/07/20 06:09:00;;;;;;;4.63;1.77;;;;;;;23.68;59.67;101336.09;5030631;28;20083;-69
2022/07/20 06:11:25;;;;;;;6.97;1.50;;;;;;;23.79;59.40;101337.22;5027050;28;20037;-69
2022/07/20 06:13:51;;;;;;;3.25;1.90;;;;;;;23.77;58.66;101313.19;5037529;28;20445;-69
2022/07/20 06:16:16;;;;;;;3.47;1.85;;;;;;;23.89;58.08;101345.63;5034004;28;20044;-69
2022/07/20 06:18:41;;;;;;;8.85;2.08;;;;;;;23.93;58.34;101338.72;5028675;28;20037;-69
2022/07/20 06:21:07;;;;;;;2.72;1.73;;;;;;;24.01;58.64;101341.09;5034017;28;20053;-69
2022/07/20 06:23:32;;;;;;;4.60;1.92;;;;;;;23.96;59.04;101322.09;5030534;28;20397;-69
2022/07/20 06:25:57;;;;;;;2.15;1.65;;;;;;;24.19;58.60;101326.75;5013980;28;20036;-69
2022/07/20 06:28:23;;;;;;;2.08;1.48;;;;;;;24.19;58.69;101332.16;5022635;28;20577;-69
2022/07/20 06:30:48;;;;;;;4.63;2.47;;;;;;;24.31;58.58;101325.97;5033245;28;20090;-69
2022/07/20 06:33:14;;;;;;;2.97;1.90;;;;;;;24.48;58.21;101331.53;5026569;28;20021;-69
2022/07/20 06:35:39;;;;;;;7.95;1.88;;;;;;;24.68;58.66;101334.78;5029583;28;20034;-69
2022/07/20 06:38:04;;;;;;;7.47;2.00;;;;;;;25.10;58.13;101341.97;5029199;28;20035;-69
2022/07/20 06:40:30;;;;;;;2.15;1.50;;;;;;;25.41;55.90;101344.34;5029314;28;20071;-69
2022/07/20 06:42:55;;;;;;;4.10;1.67;;;;;;;25.90;54.65;101348.63;5032106;28;20048;-69
2022/07/20 06:45:21;;;;;;;4.30;2.00;;;;;;;26.15;54.61;101345.56;5027930;28;20489;-69
2022/07/20 06:47:46;;;;;;;2.38;1.90;;;;;;;26.34;53.65;101351.59;5030060;28;20448;-69
2022/07/20 06:50:12;;;;;;;2.95;1.95;;;;;;;26.46;54.13;101352.38;5030129;28;20033;-69
2022/07/20 06:52:37;;;;;;;3.95;2.58;;;;;;;26.71;53.27;101353.91;5031190;28;20018;-69
2022/07/20 06:55:03;;;;;;;3.22;1.83;;;;;;;26.71;53.45;101340.38;5028242;28;20057;-69
2022/07/20 06:57:29;;;;;;;3.20;2.15;;;;;;;27.00;53.98;101344.63;5032544;28;20391;-69
2022/07/20 06:59:54;;;;;;;2.85;2.22;;;;;;;27.34;52.60;101357.31;5028799;28;20594;-69
2022/07/20 07:02:19;;;;;;;4.45;1.88;;;;;;;27.62;52.44;101354.44;5030789;28;20832;-69
2022/07/20 07:04:45;;;;;;;5.90;2.20;;;;;;;27.63;52.28;101357.97;5032103;28;20044;-70
2022/07/20 07:07:10;;;;;;;4.60;2.40;;;;;;;27.87;51.32;101348.56;5028276;28;20033;-70
2022/07/20 07:09:36;;;;;;;3.75;2.15;;;;;;;28.37;50.50;101351.22;5032048;28;20079;-70
2022/07/20 07:12:01;;;;;;;2.08;1.38;;;;;;;28.69;51.05;101354.00;5034295;28;20108;-70
2022/07/20 07:14:26;;;;;;;2.70;1.73;;;;;;;28.87;49.74;101361.72;5028263;28;20021;-70
2022/07/20 07:16:53;;;;;;;5.97;2.00;;;;;;;28.79;49.00;101355.97;5028482;28;20382;-70
2022/07/20 07:19:19;;;;;;;2.70;1.92;;;;;;;29.08;49.14;101357.25;5028230;28;20052;-70
2022/07/20 07:21:44;;;;;;;2.55;1.80;;;;;;;29.39;48.71;101352.03;5030066;28;20026;-70
2022/07/20 07:24:09;;;;;;;3.50;2.35;;;;;;;29.58;47.67;101352.41;5028996;28;20116;-70
2022/07/20 07:26:35;;;;;;;5.53;2.60;;;;;;;29.62;47.91;101344.53;5032075;28;20017;-70
2022/07/20 07:29:00;;;;;;;4.55;2.10;;;;;;;29.41;47.58;101349.88;5034084;28;20161;-70
2022/07/20 07:31:26;;;;;;;6.30;2.33;;;;;;;29.83;48.05;101351.69;5028829;28;20498;-70
2022/07/20 07:33:51;;;;;;;3.88;2.70;;;;;;;29.76;48.14;101344.88;5030927;28;20418;-70
2022/07/20 07:36:16;;;;;;;3.42;2.00;;;;;;;30.03;47.43;101345.53;5035356;28;20029;-70
2022/07/20 07:38:42;;;;;;;3.65;2.22;;;;;;;30.23;46.83;101350.19;5013518;28;20039;-70
2022/07/20 07:41:08;;;;;;;5.93;2.08;;;;;;;30.15;46.68;101339.81;5032207;28;20055;-70
2022/07/20 07:43:33;;;;;;;6.63;2.38;;;;;;;29.78;47.48;101350.88;5028847;28;20034;-71
2022/07/20 07:45:59;;;;;;;5.40;2.28;;;;;;;30.42;47.64;101341.50;5032883;28;20104;-70
2022/07/20 07:48:24;;;;;;;4.25;2.00;;;;;;;30.33;47.32;101328.47;5034857;28;20139;-70
2022/07/20 07:50:50;;;;;;;4.90;2.20;;;;;;;30.41;47.27;101353.50;5033048;28;20673;-70
2022/07/20 07:53:15;;;;;;;3.47;1.95;;;;;;;30.73;46.76;101359.50;5036938;28;20026;-70
2022/07/20 07:55:42;;;;;;;4.60;2.13;;;;;;;31.00;46.53;101352.97;5035518;28;20074;-70
2022/07/20 07:58:09;;;;;;;2.70;2.20;;;;;;;31.45;46.21;101370.34;5039210;28;20170;-70
2022/07/20 08:00:36;;;;;;;5.50;1.95;;;;;;;31.29;46.83;101355.06;5038895;28;20057;-69
2022/07/20 08:03:02;;;;;;;4.00;2.20;;;;;;;31.77;45.86;101366.38;5039732;28;20033;-69
2022/07/20 08:05:27;;;;;;;3.90;2.15;;;;;;;31.78;45.62;101378.94;5037571;28;20029;-70
2022/07/20 08:07:53;;;;;;;2.83;2.53;;;;;;;31.31;46.97;101363.78;5039390;28;20025;-69
2022/07/20 08:10:19;;;;;;;6.70;2.20;;;;;;;31.39;46.42;101368.69;5033074;28;20124;-69
2022/07/20 08:12:44;;;;;;;4.35;2.67;;;;;;;31.93;45.72;101370.66;5037254;28;20025;-69
2022/07/20 08:15:11;;;;;;;2.22;1.80;;;;;;;32.81;46.45;101378.31;5037483;28;20178;-70
2022/07/20 08:17:36;;;;;;;4.68;2.60;;;;;;;33.54;41.88;101383.59;5036623;28;20071;-70
2022/07/20 08:20:06;;;;;;;2.60;2.25;;;;;;;32.99;42.31;101391.25;5034267;28;20033;-70
2022/07/20 08:22:32;;;;;;;3.80;2.28;;;;;;;33.67;42.43;101394.97;5040363;28;20029;-69
2022/07/20 08:24:59;;;;;;;9.80;2.80;;;;;;;33.73;41.69;101399.25;5037225;28;20033;-70
2022/07/20 08:27:24;;;;;;;5.00;2.83;;;;;;;33.31;42.17;101400.81;5044014;28;20131;-70
2022/07/20 08:29:50;;;;;;;5.38;2.80;;;;;;;32.53;43.21;101410.78;5036782;28;20104;-69
2022/07/20 08:32:15;;;;;;;2.90;2.40;;;;;;;33.17;43.64;101415.19;5036662;28;20393;-69
2022/07/20 08:34:41;;;;;;;3.45;2.78;;;;;;;33.55;44.45;101422.72;5041036;28;20060;-70
2022/07/20 08:37:06;;;;;;;4.10;2.97;;;;;;;34.33;43.35;101417.91;5041721;28;20036;-69
2022/07/20 08:39:32;;;;;;;4.57;3.05;;;;;;;34.94;41.69;101427.13;5042232;28;20021;-70
2022/07/20 08:41:57;;;;;;;4.70;3.20;;;;;;;35.87;42.93;101421.53;5040071;28;20063;-70
2022/07/20 08:44:23;;;;;;;4.45;3.20;;;;;;;36.88;41.12;101421.44;5037530;28;20041;-70
2022/07/20 08:46:49;;;;;;;6.32;3.38;;;;;;;37.31;40.67;101426.38;5036917;28;20044;-70
2022/07/20 08:49:15;;;;;;;5.80;3.55;;;;;;;37.32;40.79;101430.72;5036060;28;20040;-70
2022/07/20 08:51:41;;;;;;;4.30;3.30;;;;;;;36.56;41.99;101440.56;5036429;28;20044;-70
2022/07/20 08:54:07;;;;;;;9.65;3.85;;;;;;;37.56;40.84;101447.69;5037410;28;20041;-70
2022/07/20 08:56:33;;;;;;;4.50;3.10;;;;;;;37.91;41.74;101452.47;5035560;28;20100;-70
2022/07/20 08:58:58;;;;;;;5.38;3.65;;;;;;;38.10;40.33;101466.00;5035262;28;20021;-70
2022/07/20 09:01:23;;;;;;;4.70;3.63;;;;;;;37.69;41.82;101458.91;5039152;28;20143;-70
2022/07/20 09:04:11;;;;;;;4.40;3.88;;;;;;;37.80;42.28;101476.75;5037289;28;20440;-70
2022/07/20 09:06:45;;;;;;;5.93;4.15;;;;;;;37.93;42.77;101462.03;5037390;28;20530;-70
2022/07/20 09:09:10;;;;;;;8.60;4.57;;;;;;;37.43;43.97;101485.19;5036557;28;20025;-70
2022/07/20 09:11:36;;;;;;;6.18;4.38;;;;;;;37.14;45.29;101480.19;5034825;28;20420;-70
2022/07/20 09:14:01;;;;;;;8.05;5.00;;;;;;;36.85;45.04;101478.69;5033046;28;20496;-70
2022/07/20 09:16:47;;;;;;;9.63;5.10;;;;;;;37.49;44.52;101480.34;5035713;28;20468;-70
2022/07/20 09:19:17;;;;;;;13.77;6.18;;;;;;;37.31;43.97;101471.22;5035864;28;20111;-70
2022/07/20 09:21:42;;;;;;;7.18;5.13;;;;;;;37.23;44.79;101483.78;5037340;28;20109;-70
2022/07/20 09:24:10;;;;;;;8.50;5.30;;;;;;;37.13;46.13;101508.84;5042778;28;20109;-70
2022/07/20 09:26:36;;;;;;;8.88;5.63;;;;;;;38.12;43.13;101502.31;5035021;28;20037;-70
2022/07/20 09:29:04;;;;;;;8.18;5.88;;;;;;;38.25;43.58;101506.88;5037312;28;20053;-70
2022/07/20 09:31:38;;;;;;;9.32;5.15;;;;;;;39.21;42.82;101510.44;5036874;28;20037;-70
2022/07/20 09:34:08;;;;;;;9.93;6.32;;;;;;;39.55;41.74;101494.91;5040153;28;20079;-70
2022/07/20 09:36:36;;;;;;;9.32;6.32;;;;;;;40.37;41.42;101508.44;5040357;28;20029;-70
2022/07/20 09:39:06;;;;;;;9.63;6.65;;;;;;;40.59;41.15;101520.28;5041928;28;20014;-70
2022/07/20 09:41:34;;;;;;;7.78;5.82;;;;;;;40.25;41.81;101525.75;5041667;28;20513;-70
2022/07/20 09:44:00;;;;;;;11.57;6.45;;;;;;;40.74;41.03;101536.31;5036676;28;20025;-70
2022/07/20 09:46:28;;;;;;;11.63;7.70;;;;;;;40.09;41.67;101544.88;5036156;28;20017;-68
2022/07/20 09:48:56;;;;;;;11.82;7.97;;;;;;;39.81;42.66;101538.16;5038991;28;20047;-67
2022/07/20 09:51:26;;;;;;;15.88;7.75;;;;;;;39.26;42.83;101554.44;5039948;28;20026;-68
2022/07/20 09:53:57;;;;;;;8.82;6.78;;;;;;;40.01;42.14;101554.03;5037747;28;20068;-68
2022/07/20 09:56:24;;;;;;;13.68;8.10;;;;;;;39.73;42.69;101553.66;5040471;28;20325;-69
2022/07/20 09:58:52;;;;;;;10.38;8.18;;;;;;;39.75;42.21;101556.91;5034796;28;20085;-68
2022/07/20 10:01:24;;;;;;;12.82;8.23;;;;;;;37.98;44.14;101550.06;5031809;28;20041;-68
2022/07/20 10:03:51;;;;;;;12.95;8.95;;;;;;;38.61;44.12;101556.25;5039076;28;20126;-68
2022/07/20 10:06:19;;;;;;;12.50;8.20;;;;;;;39.30;43.67;101571.94;5032787;28;20385;-68
2022/07/20 10:08:45;;;;;;;11.90;8.27;;;;;;;39.77;42.57;101564.84;5039863;28;20551;-68
2022/07/20 10:11:11;;;;;;;18.20;7.95;;;;;;;40.34;42.38;101569.97;5031460;28;20033;-68
2022/07/20 10:13:39;;;;;;;10.70;8.40;;;;;;;40.57;41.47;101566.84;5030984;28;20503;-68
2022/07/20 10:16:20;;;;;;;11.20;7.63;;;;;;;41.19;40.51;101573.53;5028696;28;20037;-68
2022/07/20 10:18:47;;;;;;;11.75;7.72;;;;;;;41.22;40.76;101568.09;5033639;28;20021;-69
2022/07/20 10:21:39;;;;;;;10.18;8.30;;;;;;;41.20;41.49;101570.41;5032082;28;20029;-68
2022/07/20 10:24:30;;;;;;;15.65;8.80;;;;;;;42.02;38.56;101572.41;5035382;28;20033;-68
2022/07/20 10:27:16;;;;;;;13.35;7.53;;;;;;;42.23;38.81;101566.72;5033914;28;20078;-69
2022/07/20 10:29:49;;;;;;;9.48;7.85;;;;;;;41.62;38.18;101578.59;5034323;28;20094;-68
2022/07/20 10:32:17;;;;;;;11.00;7.20;;;;;;;41.48;38.92;101578.88;5034146;28;20029;-68
2022/07/20 10:34:50;;;;;;;9.88;7.22;;;;;;;40.74;38.77;101568.72;5035715;28;20024;-68
2022/07/20 10:37:27;;;;;;;10.77;7.03;;;;;;;41.34;37.86;101580.38;5031561;28;20032;-68
2022/07/20 10:40:17;;;;;;;13.25;7.28;;;;;;;41.64;37.79;101581.84;5031956;28;20025;-68
2022/07/20 10:42:48;;;;;;;9.90;7.35;;;;;;;41.75;36.74;101582.19;5032353;28;20028;-69
2022/07/20 10:45:13;;;;;;;16.70;7.05;;;;;;;41.78;37.71;101578.72;5034108;28;20017;-69
2022/07/20 10:47:43;;;;;;;14.30;7.27;;;;;;;42.38;36.10;101567.13;5034152;28;20032;-69
2022/07/20 10:50:16;;;;;;;9.40;6.50;;;;;;;42.72;36.95;101582.44;5032365;28;20025;-69
2022/07/20 10:52:41;;;;;;;10.70;7.38;;;;;;;42.23;36.44;101580.59;5034293;28;20052;-69
2022/07/20 10:55:33;;;;;;;9.55;6.25;;;;;;;42.32;36.71;101583.22;5030648;28;20509;-68
2022/07/20 10:58:00;;;;;;;11.32;7.07;;;;;;;42.01;36.31;101581.88;5031975;28;20053;-68
2022/07/20 11:00:36;;;;;;;11.52;6.10;;;;;;;41.31;35.90;101592.94;5034422;28;20056;-68
2022/07/20 11:03:13;;;;;;;7.45;5.38;;;;;;;41.68;36.17;101596.63;5037298;28;20440;-68
2022/07/20 11:05:39;;;;;;;7.68;5.32;;;;;;;42.05;36.13;101587.53;5034882;28;20591;-68
2022/07/20 11:08:06;;;;;;;9.75;5.80;;;;;;;42.10;34.73;101576.22;5036032;28;20108;-68
2022/07/20 11:10:31;;;;;;;10.63;5.00;;;;;;;41.48;35.53;101586.41;5032930;28;20029;-68
2022/07/20 11:13:05;;;;;;;10.98;5.93;;;;;;;40.98;34.39;101573.53;5033853;28;20053;-69
2022/07/20 11:15:45;;;;;;;6.80;5.22;;;;;;;40.85;33.62;101567.94;5033225;28;20263;-69
2022/07/20 11:18:13;;;;;;;7.90;4.70;;;;;;;41.40;35.24;101570.69;5032342;28;20074;-69
2022/07/20 11:20:50;;;;;;;10.52;5.28;;;;;;;42.38;33.99;101576.28;5030286;28;20167;-69
2022/07/20 11:23:18;;;;;;;10.88;6.05;;;;;;;41.87;33.66;101575.84;5026985;28;20009;-69
2022/07/20 11:25:58;;;;;;;7.13;5.38;;;;;;;42.59;33.79;101583.66;5031103;28;20028;-69
2022/07/20 11:28:32;;;;;;;7.25;4.45;;;;;;;42.17;34.37;101589.50;5029357;28;20025;-69